sensor_id;sensor_type;location;lat;lon;timestamp;pressure;altitude;pressure_sealevel;temperature;humidity
30819;BME280;17546;42.674;23.284;2023-02-04T00:01:15;94517.53;;;9.35;36.50
30819;BME280;17546;42.674;23.284;2023-02-04T00:03:41;94499.59;;;9.19;36.78
30819;BME280;17546;42.674;23.284;2023-02-04T00:06:06;94502.75;;;9.43;36.81
30819;BME280;17546;42.674;23.284;2023-02-04T00:08:32;94506.22;;;9.33;37.57
30819;BME280;17546;42.674;23.284;2023-02-04T00:10:57;94493.44;;;9.35;38.13
30819;BME280;17546;42.674;23.284;2023-02-04T00:13:23;94485.34;;;9.31;39.37
30819;BME280;17546;42.674;23.284;2023-02-04T00:15:48;94481.72;;;9.57;39.22
30819;BME280;17546;42.674;23.284;2023-02-04T00:18:14;94496.81;;;9.67;39.29
30819;BME280;17546;42.674;23.284;2023-02-04T00:20:39;94477.63;;;9.47;40.49
30819;BME280;17546;42.674;23.284;2023-02-04T00:23:05;94485.25;;;9.63;40.97
30819;BME280;17546;42.674;23.284;2023-02-04T00:25:30;94490.28;;;9.65;40.70
30819;BME280;17546;42.674;23.284;2023-02-04T00:27:55;94487.34;;;9.80;41.01
30819;BME280;17546;42.674;23.284;2023-02-04T00:30:21;94468.00;;;8.88;43.52
30819;BME280;17546;42.674;23.284;2023-02-04T00:32:46;94474.44;;;9.11;43.22
30819;BME280;17546;42.674;23.284;2023-02-04T00:35:12;94469.88;;;9.02;43.56
30819;BME280;17546;42.674;23.284;2023-02-04T00:37:37;94456.22;;;8.87;43.83
30819;BME280;17546;42.674;23.284;2023-02-04T00:40:03;94446.75;;;8.36;45.08
30819;BME280;17546;42.674;23.284;2023-02-04T00:42:29;94462.91;;;8.43;44.67
30819;BME280;17546;42.674;23.284;2023-02-04T00:44:54;94451.94;;;8.49;43.19
30819;BME280;17546;42.674;23.284;2023-02-04T00:47:20;94453.03;;;8.63;42.75
30819;BME280;17546;42.674;23.284;2023-02-04T00:49:45;94440.72;;;7.80;45.82
30819;BME280;17546;42.674;23.284;2023-02-04T00:52:11;94418.63;;;7.54;45.53
30819;BME280;17546;42.674;23.284;2023-02-04T00:54:36;94449.81;;;7.86;45.12
30819;BME280;17546;42.674;23.284;2023-02-04T00:57:01;94443.47;;;8.64;44.41
30819;BME280;17546;42.674;23.284;2023-02-04T00:59:27;94429.03;;;8.17;45.50
30819;BME280;17546;42.674;23.284;2023-02-04T01:01:52;94428.31;;;8.48;44.79
30819;BME280;17546;42.674;23.284;2023-02-04T01:04:18;94436.66;;;8.27;45.79
30819;BME280;17546;42.674;23.284;2023-02-04T01:06:43;94429.84;;;8.49;45.19
30819;BME280;17546;42.674;23.284;2023-02-04T01:09:09;94419.06;;;8.25;46.10
30819;BME280;17546;42.674;23.284;2023-02-04T01:11:34;94415.41;;;8.07;46.45
30819;BME280;17546;42.674;23.284;2023-02-04T01:14:01;94422.69;;;8.11;46.75
30819;BME280;17546;42.674;23.284;2023-02-04T01:16:26;94417.59;;;7.72;47.19
30819;BME280;17546;42.674;23.284;2023-02-04T01:18:52;94408.75;;;7.21;48.93
30819;BME280;17546;42.674;23.284;2023-02-04T01:21:23;94412.19;;;7.83;47.37
30819;BME280;17546;42.674;23.284;2023-02-04T01:23:48;94413.69;;;8.10;46.87
30819;BME280;17546;42.674;23.284;2023-02-04T01:26:15;94404.91;;;7.59;47.92
30819;BME280;17546;42.674;23.284;2023-02-04T01:28:43;94396.69;;;7.91;47.37
30819;BME280;17546;42.674;23.284;2023-02-04T01:31:08;94388.66;;;8.19;46.67
30819;BME280;17546;42.674;23.284;2023-02-04T01:33:34;94365.88;;;6.58;50.92
30819;BME280;17546;42.674;23.284;2023-02-04T01:35:59;94383.94;;;7.68;47.73
30819;BME280;17546;42.674;23.284;2023-02-04T01:38:25;94389.31;;;8.08;47.08
30819;BME280;17546;42.674;23.284;2023-02-04T01:40:50;94375.75;;;8.37;45.93
30819;BME280;17546;42.674;23.284;2023-02-04T01:43:16;94389.31;;;8.72;45.37
30819;BME280;17546;42.674;23.284;2023-02-04T01:45:43;94381.94;;;8.26;46.46
30819;BME280;17546;42.674;23.284;2023-02-04T01:48:09;94373.97;;;8.02;46.94
30819;BME280;17546;42.674;23.284;2023-02-04T01:50:37;94368.78;;;8.41;46.26
30819;BME280;17546;42.674;23.284;2023-02-04T01:53:02;94386.75;;;8.63;45.88
30819;BME280;17546;42.674;23.284;2023-02-04T01:55:30;94370.03;;;8.78;45.64
30819;BME280;17546;42.674;23.284;2023-02-04T01:57:56;94371.69;;;8.64;45.67
30819;BME280;17546;42.674;23.284;2023-02-04T02:00:26;94367.69;;;8.33;46.27
30819;BME280;17546;42.674;23.284;2023-02-04T02:02:55;94368.50;;;7.50;48.52
30819;BME280;17546;42.674;23.284;2023-02-04T02:05:24;94363.50;;;7.80;47.78
30819;BME280;17546;42.674;23.284;2023-02-04T02:07:53;94347.59;;;8.27;46.47
30819;BME280;17546;42.674;23.284;2023-02-04T02:10:20;94345.25;;;7.56;48.26
30819;BME280;17546;42.674;23.284;2023-02-04T02:12:47;94334.91;;;8.09;47.10
30819;BME280;17546;42.674;23.284;2023-02-04T02:15:13;94351.50;;;8.46;46.20
30819;BME280;17546;42.674;23.284;2023-02-04T02:17:40;94336.56;;;8.27;46.43
30819;BME280;17546;42.674;23.284;2023-02-04T02:20:07;94341.97;;;8.47;45.99
30819;BME280;17546;42.674;23.284;2023-02-04T02:25:36;94347.91;;;8.72;45.27
30819;BME280;17546;42.674;23.284;2023-02-04T02:28:03;94327.06;;;8.71;45.49
30819;BME280;17546;42.674;23.284;2023-02-04T02:30:30;94317.69;;;8.57;45.79
30819;BME280;17546;42.674;23.284;2023-02-04T02:32:56;94270.63;;;7.97;46.46
30819;BME280;17546;42.674;23.284;2023-02-04T02:35:22;94295.34;;;8.55;45.91
30819;BME280;17546;42.674;23.284;2023-02-04T02:37:48;94287.94;;;8.84;45.16
30819;BME280;17546;42.674;23.284;2023-02-04T02:40:14;94284.03;;;8.53;45.29
30819;BME280;17546;42.674;23.284;2023-02-04T02:42:41;94269.47;;;8.10;46.52
30819;BME280;17546;42.674;23.284;2023-02-04T02:45:24;94283.44;;;8.86;45.11
30819;BME280;17546;42.674;23.284;2023-02-04T02:47:52;94280.16;;;8.88;44.96
30819;BME280;17546;42.674;23.284;2023-02-04T02:50:20;94267.81;;;8.66;45.34
30819;BME280;17546;42.674;23.284;2023-02-04T02:52:48;94255.31;;;8.82;45.05
30819;BME280;17546;42.674;23.284;2023-02-04T02:55:16;94259.81;;;8.80;44.94
30819;BME280;17546;42.674;23.284;2023-02-04T02:57:44;94261.41;;;9.15;44.45
30819;BME280;17546;42.674;23.284;2023-02-04T03:00:28;94246.34;;;9.10;44.31
30819;BME280;17546;42.674;23.284;2023-02-04T03:03:06;94249.13;;;9.16;44.30
30819;BME280;17546;42.674;23.284;2023-02-04T03:05:37;94256.88;;;9.06;44.48
30819;BME280;17546;42.674;23.284;2023-02-04T03:08:05;94235.16;;;8.16;46.04
30819;BME280;17546;42.674;23.284;2023-02-04T03:10:32;94250.63;;;8.45;45.76
30819;BME280;17546;42.674;23.284;2023-02-04T03:12:58;94263.44;;;8.48;45.82
30819;BME280;17546;42.674;23.284;2023-02-04T03:15:24;94269.13;;;8.88;45.02
30819;BME280;17546;42.674;23.284;2023-02-04T03:17:50;94284.47;;;8.95;44.88
30819;BME280;17546;42.674;23.284;2023-02-04T03:20:22;94279.50;;;8.13;46.09
30819;BME280;17546;42.674;23.284;2023-02-04T03:22:49;94273.84;;;8.76;45.11
30819;BME280;17546;42.674;23.284;2023-02-04T03:25:15;94262.06;;;8.81;44.97
30819;BME280;17546;42.674;23.284;2023-02-04T03:27:40;94252.56;;;8.39;45.65
30819;BME280;17546;42.674;23.284;2023-02-04T03:30:06;94265.03;;;8.23;45.96
30819;BME280;17546;42.674;23.284;2023-02-04T03:32:33;94258.44;;;8.47;45.77
30819;BME280;17546;42.674;23.284;2023-02-04T03:34:59;94268.03;;;8.68;45.14
30819;BME280;17546;42.674;23.284;2023-02-04T03:37:24;94271.63;;;8.80;44.66
30819;BME280;17546;42.674;23.284;2023-02-04T03:39:50;94263.09;;;8.35;45.35
30819;BME280;17546;42.674;23.284;2023-02-04T03:42:15;94244.84;;;8.00;46.31
30819;BME280;17546;42.674;23.284;2023-02-04T03:44:42;94251.88;;;8.44;45.38
30819;BME280;17546;42.674;23.284;2023-02-04T03:47:07;94233.09;;;7.74;47.06
30819;BME280;17546;42.674;23.284;2023-02-04T03:49:36;94240.38;;;8.52;45.28
30819;BME280;17546;42.674;23.284;2023-02-04T03:52:02;94244.22;;;8.28;45.54
30819;BME280;17546;42.674;23.284;2023-02-04T03:54:27;94239.47;;;8.83;44.93
30819;BME280;17546;42.674;23.284;2023-02-04T03:56:53;94227.66;;;8.77;44.48
30819;BME280;17546;42.674;23.284;2023-02-04T03:59:18;94212.41;;;8.98;44.22
30819;BME280;17546;42.674;23.284;2023-02-04T04:01:44;94202.13;;;9.10;44.12
30819;BME280;17546;42.674;23.284;2023-02-04T04:04:09;94201.66;;;9.17;43.87
30819;BME280;17546;42.674;23.284;2023-02-04T04:06:35;94203.38;;;9.15;43.48
30819;BME280;17546;42.674;23.284;2023-02-04T04:09:00;94189.00;;;8.17;45.03
30819;BME280;17546;42.674;23.284;2023-02-04T04:11:26;94180.34;;;8.46;44.47
30819;BME280;17546;42.674;23.284;2023-02-04T04:13:51;94158.81;;;8.56;43.70
30819;BME280;17546;42.674;23.284;2023-02-04T04:16:17;94167.09;;;8.56;43.89
30819;BME280;17546;42.674;23.284;2023-02-04T04:18:42;94173.28;;;8.34;44.22
30819;BME280;17546;42.674;23.284;2023-02-04T04:21:07;94141.81;;;8.86;43.16
30819;BME280;17546;42.674;23.284;2023-02-04T04:23:33;94168.19;;;8.87;43.23
30819;BME280;17546;42.674;23.284;2023-02-04T04:25:59;94167.94;;;8.90;43.67
30819;BME280;17546;42.674;23.284;2023-02-04T04:28:24;94176.47;;;8.93;43.87
30819;BME280;17546;42.674;23.284;2023-02-04T04:30:50;94179.22;;;8.93;44.45
30819;BME280;17546;42.674;23.284;2023-02-04T04:33:15;94179.44;;;8.72;44.08
30819;BME280;17546;42.674;23.284;2023-02-04T04:35:40;94176.91;;;8.68;44.34
30819;BME280;17546;42.674;23.284;2023-02-04T04:38:06;94199.91;;;9.20;43.05
30819;BME280;17546;42.674;23.284;2023-02-04T04:40:31;94194.34;;;9.25;43.31
30819;BME280;17546;42.674;23.284;2023-02-04T04:42:57;94188.78;;;8.92;43.67
30819;BME280;17546;42.674;23.284;2023-02-04T04:45:22;94201.63;;;9.12;43.52
30819;BME280;17546;42.674;23.284;2023-02-04T04:47:47;94205.63;;;8.99;43.66
30819;BME280;17546;42.674;23.284;2023-02-04T04:50:13;94211.19;;;9.39;42.97
30819;BME280;17546;42.674;23.284;2023-02-04T04:52:38;94213.19;;;9.21;43.15
30819;BME280;17546;42.674;23.284;2023-02-04T04:55:04;94217.47;;;9.22;43.40
30819;BME280;17546;42.674;23.284;2023-02-04T04:57:30;94207.19;;;9.51;42.95
30819;BME280;17546;42.674;23.284;2023-02-04T04:59:56;94211.94;;;9.11;43.95
30819;BME280;17546;42.674;23.284;2023-02-04T05:02:21;94201.13;;;9.13;44.31
30819;BME280;17546;42.674;23.284;2023-02-04T05:04:47;94214.16;;;8.96;44.76
30819;BME280;17546;42.674;23.284;2023-02-04T05:07:12;94193.38;;;9.40;44.52
30819;BME280;17546;42.674;23.284;2023-02-04T05:09:38;94203.91;;;9.41;43.64
30819;BME280;17546;42.674;23.284;2023-02-04T05:12:03;94214.44;;;9.26;44.68
30819;BME280;17546;42.674;23.284;2023-02-04T05:14:29;94208.91;;;9.09;45.30
30819;BME280;17546;42.674;23.284;2023-02-04T05:16:54;94233.66;;;8.75;46.14
30819;BME280;17546;42.674;23.284;2023-02-04T05:19:19;94231.75;;;9.04;46.32
30819;BME280;17546;42.674;23.284;2023-02-04T05:21:45;94231.97;;;8.89;46.81
30819;BME280;17546;42.674;23.284;2023-02-04T05:24:10;94241.72;;;8.79;47.09
30819;BME280;17546;42.674;23.284;2023-02-04T05:26:36;94234.72;;;8.78;46.87
30819;BME280;17546;42.674;23.284;2023-02-04T05:29:01;94242.97;;;8.72;46.79
30819;BME280;17546;42.674;23.284;2023-02-04T05:31:27;94257.97;;;8.17;48.23
30819;BME280;17546;42.674;23.284;2023-02-04T05:33:53;94262.25;;;8.61;47.64
30819;BME280;17546;42.674;23.284;2023-02-04T05:36:19;94277.66;;;8.84;47.18
30819;BME280;17546;42.674;23.284;2023-02-04T05:38:44;94288.31;;;9.20;46.27
30819;BME280;17546;42.674;23.284;2023-02-04T05:41:10;94282.34;;;8.67;46.97
30819;BME280;17546;42.674;23.284;2023-02-04T05:43:36;94293.34;;;8.56;47.88
30819;BME280;17546;42.674;23.284;2023-02-04T05:46:01;94297.41;;;8.28;47.91
30819;BME280;17546;42.674;23.284;2023-02-04T05:48:27;94298.69;;;8.33;48.48
30819;BME280;17546;42.674;23.284;2023-02-04T05:50:53;94303.44;;;8.27;48.50
30819;BME280;17546;42.674;23.284;2023-02-04T05:53:18;94284.38;;;7.60;48.90
30819;BME280;17546;42.674;23.284;2023-02-04T05:55:44;94278.22;;;8.08;47.85
30819;BME280;17546;42.674;23.284;2023-02-04T05:58:09;94269.28;;;8.19;47.84
30819;BME280;17546;42.674;23.284;2023-02-04T06:00:35;94252.56;;;8.39;47.13
30819;BME280;17546;42.674;23.284;2023-02-04T06:03:00;94238.25;;;8.35;47.07
30819;BME280;17546;42.674;23.284;2023-02-04T06:05:26;94243.50;;;8.33;46.72
30819;BME280;17546;42.674;23.284;2023-02-04T06:07:51;94245.28;;;8.36;46.82
30819;BME280;17546;42.674;23.284;2023-02-04T06:10:17;94247.00;;;8.28;46.79
30819;BME280;17546;42.674;23.284;2023-02-04T06:12:43;94257.25;;;8.22;47.21
30819;BME280;17546;42.674;23.284;2023-02-04T06:15:08;94266.88;;;8.38;46.65
30819;BME280;17546;42.674;23.284;2023-02-04T06:17:35;94263.34;;;7.94;47.77
30819;BME280;17546;42.674;23.284;2023-02-04T06:20:01;94265.84;;;8.35;47.50
30819;BME280;17546;42.674;23.284;2023-02-04T06:22:26;94280.56;;;8.21;46.80
30819;BME280;17546;42.674;23.284;2023-02-04T06:24:51;94280.66;;;7.95;46.63
30819;BME280;17546;42.674;23.284;2023-02-04T06:27:17;94284.00;;;8.10;45.89
30819;BME280;17546;42.674;23.284;2023-02-04T06:29:48;94279.81;;;8.58;45.43
30819;BME280;17546;42.674;23.284;2023-02-04T06:32:15;94282.88;;;8.71;44.83
30819;BME280;17546;42.674;23.284;2023-02-04T06:34:40;94282.09;;;8.65;44.93
30819;BME280;17546;42.674;23.284;2023-02-04T06:37:06;94288.53;;;9.05;44.50
30819;BME280;17546;42.674;23.284;2023-02-04T06:39:31;94288.97;;;8.92;44.80
30819;BME280;17546;42.674;23.284;2023-02-04T06:41:56;94290.28;;;9.08;44.31
30819;BME280;17546;42.674;23.284;2023-02-04T06:44:22;94293.53;;;9.01;44.25
30819;BME280;17546;42.674;23.284;2023-02-04T06:46:47;94286.03;;;9.13;43.83
30819;BME280;17546;42.674;23.284;2023-02-04T06:49:13;94298.19;;;8.72;43.83
30819;BME280;17546;42.674;23.284;2023-02-04T06:51:38;94287.78;;;9.04;43.85
30819;BME280;17546;42.674;23.284;2023-02-04T06:54:04;94294.38;;;9.24;42.54
30819;BME280;17546;42.674;23.284;2023-02-04T06:56:29;94297.59;;;9.11;42.97
30819;BME280;17546;42.674;23.284;2023-02-04T06:58:55;94290.31;;;9.19;42.43
30819;BME280;17546;42.674;23.284;2023-02-04T07:01:20;94280.34;;;9.56;41.94
30819;BME280;17546;42.674;23.284;2023-02-04T07:03:47;94290.63;;;9.44;42.08
30819;BME280;17546;42.674;23.284;2023-02-04T07:06:12;94275.28;;;9.43;42.04
30819;BME280;17546;42.674;23.284;2023-02-04T07:08:37;94281.03;;;9.22;42.86
30819;BME280;17546;42.674;23.284;2023-02-04T07:11:03;94280.56;;;9.41;42.41
30819;BME280;17546;42.674;23.284;2023-02-04T07:13:28;94271.06;;;9.87;41.47
30819;BME280;17546;42.674;23.284;2023-02-04T07:15:54;94276.31;;;9.51;42.20
30819;BME280;17546;42.674;23.284;2023-02-04T07:18:20;94280.78;;;9.20;42.53
30819;BME280;17546;42.674;23.284;2023-02-04T07:20:45;94273.22;;;9.09;42.82
30819;BME280;17546;42.674;23.284;2023-02-04T07:23:11;94258.72;;;9.43;42.07
30819;BME280;17546;42.674;23.284;2023-02-04T07:25:36;94255.72;;;9.46;41.70
30819;BME280;17546;42.674;23.284;2023-02-04T07:28:03;94257.44;;;9.38;41.73
30819;BME280;17546;42.674;23.284;2023-02-04T07:30:32;94268.53;;;10.00;41.00
30819;BME280;17546;42.674;23.284;2023-02-04T07:32:58;94243.38;;;9.87;41.42
30819;BME280;17546;42.674;23.284;2023-02-04T07:35:23;94240.09;;;9.32;42.18
30819;BME280;17546;42.674;23.284;2023-02-04T07:37:49;94249.91;;;9.50;41.53
30819;BME280;17546;42.674;23.284;2023-02-04T07:40:15;94252.41;;;9.37;41.78
30819;BME280;17546;42.674;23.284;2023-02-04T07:42:40;94254.91;;;10.25;40.73
30819;BME280;17546;42.674;23.284;2023-02-04T07:45:07;94244.41;;;9.72;41.82
30819;BME280;17546;42.674;23.284;2023-02-04T07:47:32;94254.41;;;9.25;42.19
30819;BME280;17546;42.674;23.284;2023-02-04T07:49:58;94242.88;;;9.38;42.17
30819;BME280;17546;42.674;23.284;2023-02-04T07:52:24;94240.63;;;10.04;40.99
30819;BME280;17546;42.674;23.284;2023-02-04T07:54:49;94243.66;;;9.95;40.72
30819;BME280;17546;42.674;23.284;2023-02-04T07:57:17;94244.09;;;10.27;40.13
30819;BME280;17546;42.674;23.284;2023-02-04T07:59:43;94246.34;;;10.23;40.64
30819;BME280;17546;42.674;23.284;2023-02-04T08:02:09;94244.63;;;10.03;40.52
30819;BME280;17546;42.674;23.284;2023-02-04T08:04:35;94248.91;;;10.09;40.12
30819;BME280;17546;42.674;23.284;2023-02-04T08:07:02;94255.69;;;10.03;40.33
30819;BME280;17546;42.674;23.284;2023-02-04T08:09:28;94250.16;;;10.03;40.56
30819;BME280;17546;42.674;23.284;2023-02-04T08:11:53;94246.66;;;9.85;40.88
30819;BME280;17546;42.674;23.284;2023-02-04T08:14:19;94252.16;;;10.13;40.49
30819;BME280;17546;42.674;23.284;2023-02-04T08:16:44;94254.97;;;9.80;40.75
30819;BME280;17546;42.674;23.284;2023-02-04T08:19:09;94265.75;;;9.38;41.94
30819;BME280;17546;42.674;23.284;2023-02-04T08:21:35;94261.22;;;9.35;41.88
30819;BME280;17546;42.674;23.284;2023-02-04T08:24:00;94255.94;;;9.77;41.11
30819;BME280;17546;42.674;23.284;2023-02-04T08:26:26;94254.22;;;9.90;41.18
30819;BME280;17546;42.674;23.284;2023-02-04T08:28:51;94251.16;;;10.17;40.17
30819;BME280;17546;42.674;23.284;2023-02-04T08:31:17;94249.91;;;10.18;40.35
30819;BME280;17546;42.674;23.284;2023-02-04T08:33:42;94235.31;;;10.00;40.78
30819;BME280;17546;42.674;23.284;2023-02-04T08:36:08;94244.16;;;9.93;40.98
30819;BME280;17546;42.674;23.284;2023-02-04T08:38:33;94246.41;;;9.66;41.88
30819;BME280;17546;42.674;23.284;2023-02-04T08:40:59;94226.78;;;9.70;42.26
30819;BME280;17546;42.674;23.284;2023-02-04T08:43:25;94236.59;;;9.65;42.57
30819;BME280;17546;42.674;23.284;2023-02-04T08:45:51;94234.84;;;9.62;42.96
30819;BME280;17546;42.674;23.284;2023-02-04T08:48:16;94244.66;;;9.69;43.17
30819;BME280;17546;42.674;23.284;2023-02-04T08:50:41;94241.38;;;9.48;44.01
30819;BME280;17546;42.674;23.284;2023-02-04T08:53:07;94244.88;;;9.54;43.84
30819;BME280;17546;42.674;23.284;2023-02-04T08:55:32;94231.31;;;9.45;44.02
30819;BME280;17546;42.674;23.284;2023-02-04T08:57:58;94232.81;;;9.35;44.80
30819;BME280;17546;42.674;23.284;2023-02-04T09:00:25;94232.78;;;9.06;44.87
30819;BME280;17546;42.674;23.284;2023-02-04T09:02:51;94213.19;;;9.16;44.54
30819;BME280;17546;42.674;23.284;2023-02-04T09:05:16;94231.06;;;9.65;44.23
30819;BME280;17546;42.674;23.284;2023-02-04T09:07:41;94217.75;;;9.69;43.46
30819;BME280;17546;42.674;23.284;2023-02-04T09:10:07;94224.03;;;9.92;43.65
30819;BME280;17546;42.674;23.284;2023-02-04T09:12:33;94210.72;;;9.46;44.79
30819;BME280;17546;42.674;23.284;2023-02-04T09:14:58;94203.66;;;9.22;44.58
30819;BME280;17546;42.674;23.284;2023-02-04T09:17:24;94214.00;;;9.61;43.19
30819;BME280;17546;42.674;23.284;2023-02-04T09:19:49;94225.53;;;9.43;43.33
30819;BME280;17546;42.674;23.284;2023-02-04T09:22:14;94211.22;;;9.50;43.26
30819;BME280;17546;42.674;23.284;2023-02-04T09:24:40;94213.97;;;9.56;43.16
30819;BME280;17546;42.674;23.284;2023-02-04T09:27:05;94207.44;;;9.70;42.80
30819;BME280;17546;42.674;23.284;2023-02-04T09:29:31;94223.78;;;9.51;43.15
30819;BME280;17546;42.674;23.284;2023-02-04T09:31:56;94223.75;;;9.96;42.59
30819;BME280;17546;42.674;23.284;2023-02-04T09:34:22;94223.53;;;9.77;43.19
30819;BME280;17546;42.674;23.284;2023-02-04T09:36:48;94209.69;;;9.26;44.31
30819;BME280;17546;42.674;23.284;2023-02-04T09:39:13;94225.03;;;9.78;43.84
30819;BME280;17546;42.674;23.284;2023-02-04T09:41:39;94221.78;;;9.80;43.96
30819;BME280;17546;42.674;23.284;2023-02-04T09:44:14;94223.03;;;9.67;44.43
30819;BME280;17546;42.674;23.284;2023-02-04T09:46:47;94216.75;;;9.61;45.25
30819;BME280;17546;42.674;23.284;2023-02-04T09:49:13;94209.72;;;9.77;45.14
30819;BME280;17546;42.674;23.284;2023-02-04T09:51:40;94210.97;;;9.82;45.40
30819;BME280;17546;42.674;23.284;2023-02-04T09:54:11;94197.63;;;9.63;46.28
30819;BME280;17546;42.674;23.284;2023-02-04T09:56:37;94208.72;;;9.75;46.40
30819;BME280;17546;42.674;23.284;2023-02-04T09:59:17;94201.91;;;9.59;47.08
30819;BME280;17546;42.674;23.284;2023-02-04T10:01:54;94196.38;;;9.30;47.51
30819;BME280;17546;42.674;23.284;2023-02-04T10:04:22;94183.81;;;9.24;47.69
30819;BME280;17546;42.674;23.284;2023-02-04T10:06:47;94193.63;;;9.42;47.78
30819;BME280;17546;42.674;23.284;2023-02-04T10:09:14;94185.56;;;9.21;47.68
30819;BME280;17546;42.674;23.284;2023-02-04T10:11:41;94179.50;;;8.89;47.82
30819;BME280;17546;42.674;23.284;2023-02-04T10:14:15;94177.75;;;9.03;46.63
30819;BME280;17546;42.674;23.284;2023-02-04T10:16:53;94176.97;;;8.85;47.76
30819;BME280;17546;42.674;23.284;2023-02-04T10:19:19;94178.75;;;9.05;47.62
30819;BME280;17546;42.674;23.284;2023-02-04T10:21:45;94179.28;;;9.15;46.78
30819;BME280;17546;42.674;23.284;2023-02-04T10:24:16;94178.53;;;9.26;47.05
30819;BME280;17546;42.674;23.284;2023-02-04T10:26:43;94170.66;;;8.68;48.36
30819;BME280;17546;42.674;23.284;2023-02-04T10:29:19;94164.41;;;8.84;48.35
30819;BME280;17546;42.674;23.284;2023-02-04T10:31:47;94172.44;;;8.82;48.02
30819;BME280;17546;42.674;23.284;2023-02-04T10:34:23;94169.47;;;9.14;47.93
30819;BME280;17546;42.674;23.284;2023-02-04T10:36:56;94173.50;;;9.13;47.95
30819;BME280;17546;42.674;23.284;2023-02-04T10:39:26;94180.19;;;8.67;49.56
30819;BME280;17546;42.674;23.284;2023-02-04T10:41:55;94167.94;;;8.96;49.56
30819;BME280;17546;42.674;23.284;2023-02-04T10:44:30;94171.66;;;8.71;50.34
30819;BME280;17546;42.674;23.284;2023-02-04T10:47:00;94162.63;;;8.64;50.71
30819;BME280;17546;42.674;23.284;2023-02-04T10:49:26;94171.50;;;9.25;49.35
30819;BME280;17546;42.674;23.284;2023-02-04T10:51:52;94154.09;;;8.79;50.35
30819;BME280;17546;42.674;23.284;2023-02-04T10:54:20;94156.94;;;9.24;49.25
30819;BME280;17546;42.674;23.284;2023-02-04T10:57:19;94152.66;;;9.18;49.71
30819;BME280;17546;42.674;23.284;2023-02-04T10:59:50;94153.91;;;9.45;49.09
30819;BME280;17546;42.674;23.284;2023-02-04T11:05:22;94148.63;;;9.02;49.34
30819;BME280;17546;42.674;23.284;2023-02-04T11:07:49;94145.84;;;9.07;49.73
30819;BME280;17546;42.674;23.284;2023-02-04T11:10:20;94135.28;;;9.57;48.65
30819;BME280;17546;42.674;23.284;2023-02-04T11:18:45;94131.81;;;9.11;49.14
30819;BME280;17546;42.674;23.284;2023-02-04T11:23:45;94133.56;;;9.20;48.94
30819;BME280;17546;42.674;23.284;2023-02-04T11:26:19;94127.72;;;8.67;49.48
30819;BME280;17546;42.674;23.284;2023-02-04T11:31:42;94129.28;;;9.19;48.93
30819;BME280;17546;42.674;23.284;2023-02-04T11:36:54;94132.56;;;9.40;48.57
30819;BME280;17546;42.674;23.284;2023-02-04T11:39:20;94131.81;;;9.00;49.22
30819;BME280;17546;42.674;23.284;2023-02-04T11:41:46;94126.28;;;9.34;48.86
30819;BME280;17546;42.674;23.284;2023-02-04T11:44:15;94136.31;;;9.03;49.51
30819;BME280;17546;42.674;23.284;2023-02-04T11:46:41;94126.28;;;9.34;48.82
30819;BME280;17546;42.674;23.284;2023-02-04T11:49:17;94133.25;;;9.80;47.67
30819;BME280;17546;42.674;23.284;2023-02-04T11:51:43;94134.50;;;9.84;47.46
30819;BME280;17546;42.674;23.284;2023-02-04T11:54:13;94134.41;;;10.18;47.16
30819;BME280;17546;42.674;23.284;2023-02-04T11:56:40;94130.72;;;9.87;47.28
30819;BME280;17546;42.674;23.284;2023-02-04T11:59:08;94127.22;;;9.76;47.37
30819;BME280;17546;42.674;23.284;2023-02-04T12:01:35;94129.97;;;9.92;47.16
30819;BME280;17546;42.674;23.284;2023-02-04T12:04:03;94127.78;;;9.46;47.60
30819;BME280;17546;42.674;23.284;2023-02-04T12:06:34;94118.16;;;9.81;47.11
30819;BME280;17546;42.674;23.284;2023-02-04T12:09:07;94126.47;;;9.75;47.24
30819;BME280;17546;42.674;23.284;2023-02-04T12:11:57;94115.72;;;9.15;48.90
30819;BME280;17546;42.674;23.284;2023-02-04T12:14:31;94121.25;;;9.49;47.41
30819;BME280;17546;42.674;23.284;2023-02-04T12:16:56;94117.22;;;9.27;48.68
30819;BME280;17546;42.674;23.284;2023-02-04T12:19:22;94117.97;;;9.50;48.33
30819;BME280;17546;42.674;23.284;2023-02-04T12:21:47;94122.75;;;9.39;48.72
30819;BME280;17546;42.674;23.284;2023-02-04T12:24:13;94119.72;;;9.59;48.13
30819;BME280;17546;42.674;23.284;2023-02-04T12:26:39;94119.97;;;8.71;49.33
30819;BME280;17546;42.674;23.284;2023-02-04T12:29:04;94111.91;;;9.63;48.56
30819;BME280;17546;42.674;23.284;2023-02-04T12:31:30;94123.75;;;9.52;48.28
30819;BME280;17546;42.674;23.284;2023-02-04T12:33:56;94104.09;;;9.67;47.62
30819;BME280;17546;42.674;23.284;2023-02-04T12:36:22;94111.16;;;9.68;48.09
30819;BME280;17546;42.674;23.284;2023-02-04T12:38:48;94097.06;;;9.83;47.03
30819;BME280;17546;42.674;23.284;2023-02-04T12:41:14;94108.66;;;9.48;47.28
30819;BME280;17546;42.674;23.284;2023-02-04T12:43:39;94111.19;;;9.57;46.18
30819;BME280;17546;42.674;23.284;2023-02-04T12:46:05;94109.19;;;9.29;46.78
30819;BME280;17546;42.674;23.284;2023-02-04T12:48:33;94114.72;;;9.29;46.25
30819;BME280;17546;42.674;23.284;2023-02-04T12:50:59;94103.28;;;9.89;45.57
30819;BME280;17546;42.674;23.284;2023-02-04T12:53:24;94104.63;;;9.60;45.40
30819;BME280;17546;42.674;23.284;2023-02-04T12:55:50;94107.44;;;9.09;47.02
30819;BME280;17546;42.674;23.284;2023-02-04T12:58:15;94108.16;;;9.49;45.86
30819;BME280;17546;42.674;23.284;2023-02-04T13:00:41;94100.13;;;9.46;45.94
30819;BME280;17546;42.674;23.284;2023-02-04T13:03:06;94122.50;;;9.42;46.16
30819;BME280;17546;42.674;23.284;2023-02-04T13:05:32;94117.47;;;9.35;46.36
30819;BME280;17546;42.674;23.284;2023-02-04T13:07:58;94106.09;;;9.78;45.39
30819;BME280;17546;42.674;23.284;2023-02-04T13:10:23;94114.44;;;9.61;45.98
30819;BME280;17546;42.674;23.284;2023-02-04T13:12:50;94118.25;;;9.13;46.93
30819;BME280;17546;42.674;23.284;2023-02-04T13:15:15;94117.97;;;9.17;46.66
30819;BME280;17546;42.674;23.284;2023-02-04T13:17:41;94110.19;;;9.26;46.38